createdAt,value
2022-09-22T00:00:14.596Z,5.63
2022-09-22T00:05:21.500Z,5.86
2022-09-22T00:10:28.467Z,5.24
2022-09-22T00:15:35.368Z,5.49
2022-09-22T00:20:42.366Z,5.46
2022-09-22T00:25:49.274Z,4.92
2022-09-22T00:30:56.419Z,5.37
2022-09-22T00:36:03.350Z,4.63
2022-09-22T00:41:10.328Z,5.10
2022-09-22T00:46:17.313Z,4.81
2022-09-22T00:51:24.201Z,3.69
2022-09-22T00:56:31.186Z,3.94
2022-09-22T01:01:38.163Z,4.29
2022-09-22T01:06:45.077Z,3.91
2022-09-22T01:11:51.976Z,3.78
2022-09-22T01:16:58.892Z,3.58
2022-09-22T01:22:05.846Z,3.41
2022-09-22T01:27:12.907Z,3.60
2022-09-22T01:32:19.852Z,3.56
2022-09-22T01:37:27.004Z,3.34
2022-09-22T01:42:33.988Z,3.59
2022-09-22T01:47:40.941Z,4.04
2022-09-22T01:52:47.916Z,4.13
2022-09-22T01:57:55.005Z,3.96
2022-09-22T02:03:01.970Z,4.22
2022-09-22T02:08:08.997Z,4.34
2022-09-22T02:13:15.914Z,3.74
2022-09-22T02:18:22.949Z,3.11
2022-09-22T02:23:29.850Z,3.18
2022-09-22T02:28:36.934Z,3.82
2022-09-22T02:33:43.881Z,4.26
2022-09-22T02:38:50.856Z,4.16
2022-09-22T02:43:57.796Z,4.49
2022-09-22T02:49:04.812Z,4.11
2022-09-22T02:54:12.275Z,4.04
2022-09-22T02:59:19.322Z,4.47
2022-09-22T03:04:26.295Z,4.92
2022-09-22T03:09:33.264Z,4.90
2022-09-22T03:14:40.166Z,4.21
2022-09-22T03:19:47.105Z,3.96
2022-09-22T03:24:54.025Z,3.42
2022-09-22T03:30:01.049Z,3.93
2022-09-22T03:35:07.985Z,3.83
2022-09-22T03:40:15.135Z,3.54
2022-09-22T03:45:22.123Z,4.02
2022-09-22T03:50:29.252Z,3.87
2022-09-22T03:55:36.206Z,4.03
2022-09-22T04:00:43.268Z,3.70
2022-09-22T04:05:50.208Z,4.34
2022-09-22T04:10:57.324Z,4.35
2022-09-22T04:16:04.268Z,4.04
2022-09-22T04:21:11.243Z,4.30
2022-09-22T04:26:18.210Z,3.97
2022-09-22T04:31:25.210Z,4.23
2022-09-22T04:36:32.143Z,3.38
2022-09-22T04:41:39.118Z,3.64
2022-09-22T04:46:46.102Z,3.79
2022-09-22T04:51:52.961Z,4.81
2022-09-22T04:57:00.039Z,5.37
2022-09-22T05:02:06.900Z,5.46
2022-09-22T05:07:14.074Z,4.04
2022-09-22T05:12:21.010Z,4.02
2022-09-22T05:17:28.050Z,4.38
2022-09-22T05:22:39.723Z,11.71
2022-09-22T05:27:41.650Z,15.61
2022-09-22T05:32:48.553Z,13.88
2022-09-22T05:37:55.562Z,17.74
2022-09-22T05:43:02.467Z,12.82
2022-09-22T05:48:09.469Z,27.86
2022-09-22T05:53:16.385Z,16.71
2022-09-22T05:58:23.449Z,9.70
2022-09-22T06:03:30.390Z,12.88
2022-09-22T06:08:37.516Z,6.32
2022-09-22T06:13:44.427Z,13.55
2022-09-22T06:18:51.442Z,11.40
2022-09-22T06:23:58.374Z,8.40
2022-09-22T06:29:05.490Z,7.32
2022-09-22T06:34:12.415Z,6.66
2022-09-22T06:39:19.602Z,5.12
2022-09-22T06:44:26.524Z,4.76
2022-09-22T06:49:33.583Z,4.33
2022-09-22T06:54:40.477Z,3.99
2022-09-22T06:59:47.412Z,3.72
2022-09-22T07:04:54.369Z,4.07
2022-09-22T07:10:01.358Z,4.00
2022-09-22T07:15:08.269Z,4.10
2022-09-22T07:20:15.369Z,3.64
2022-09-22T07:25:22.269Z,3.32
2022-09-22T07:30:29.340Z,3.55
2022-09-22T07:35:36.334Z,4.85
2022-09-22T07:40:43.441Z,4.46
2022-09-22T07:45:50.348Z,4.39
2022-09-22T07:50:57.442Z,7.06
2022-09-22T07:56:04.364Z,8.15
2022-09-22T08:01:11.447Z,7.17
2022-09-22T08:06:18.516Z,11.65
2022-09-22T08:11:25.411Z,8.23
2022-09-22T08:16:32.525Z,7.21
2022-09-22T08:21:47.978Z,10.92
2022-09-22T08:26:48.251Z,12.63
2022-09-22T08:31:52.525Z,10.66
2022-09-22T08:37:00.121Z,13.37
2022-09-22T08:42:07.200Z,10.51
2022-09-22T08:47:14.105Z,9.87
2022-09-22T08:52:21.186Z,7.30
2022-09-22T08:57:28.129Z,9.17
2022-09-22T09:02:35.204Z,9.56
2022-09-22T09:07:42.096Z,6.89
2022-09-22T09:12:49.146Z,8.92
2022-09-22T09:17:56.073Z,7.49
2022-09-22T09:23:03.088Z,8.04
2022-09-22T09:28:10.018Z,7.38
2022-09-22T09:33:17.144Z,7.45
2022-09-22T09:38:24.134Z,6.20
2022-09-22T09:43:31.180Z,5.89
2022-09-22T09:48:38.398Z,6.18
2022-09-22T09:53:45.313Z,5.94
2022-09-22T09:58:52.632Z,2.88
2022-09-22T10:03:59.622Z,2.38
2022-09-22T10:09:08.377Z,1.61
2022-09-22T10:14:15.311Z,1.67
2022-09-22T10:19:22.515Z,1.47
2022-09-22T10:24:29.488Z,1.39
2022-09-22T10:29:36.582Z,1.48
2022-09-22T10:34:43.534Z,1.46
2022-09-22T10:39:50.476Z,1.44
2022-09-22T10:44:57.477Z,1.61
2022-09-22T10:50:04.628Z,1.73
2022-09-22T10:55:12.212Z,2.05
2022-09-22T11:00:19.123Z,1.88
2022-09-22T11:05:27.714Z,1.99
2022-09-22T11:10:35.940Z,1.85
2022-09-22T11:15:42.937Z,2.10
2022-09-22T11:20:50.090Z,2.01
2022-09-22T11:25:57.066Z,1.86
2022-09-22T11:31:04.082Z,2.10
2022-09-22T11:36:11.804Z,1.81
2022-09-22T11:41:22.709Z,2.12
2022-09-22T11:46:19.832Z,2.19
2022-09-22T11:51:30.965Z,2.04
2022-09-22T11:56:27.903Z,1.89
2022-09-22T12:01:38.931Z,1.67
2022-09-22T12:06:36.961Z,2.06
2022-09-22T12:11:47.864Z,1.91
2022-09-22T12:16:44.758Z,2.10
2022-09-22T12:21:55.977Z,1.71
2022-09-22T12:26:52.941Z,2.10
2022-09-22T12:32:04.597Z,1.97
2022-09-22T12:37:01.492Z,2.17
2022-09-22T12:42:12.842Z,1.87
2022-09-22T12:47:09.880Z,2.18
2022-09-22T12:52:21.380Z,1.69
2022-09-22T12:57:18.319Z,1.68
2022-09-22T13:02:29.326Z,2.34
2022-09-22T13:07:26.228Z,2.20
2022-09-22T13:12:39.042Z,2.19
2022-09-22T13:17:35.932Z,2.37
2022-09-22T13:22:48.845Z,2.46
2022-09-22T13:27:45.783Z,2.10
2022-09-22T13:32:54.257Z,2.20
2022-09-22T13:38:01.321Z,1.93
2022-09-22T13:43:12.562Z,1.84
2022-09-22T13:48:09.482Z,2.02
2022-09-22T13:53:20.415Z,2.13
2022-09-22T13:58:17.796Z,2.35
2022-09-22T14:03:28.468Z,2.55
2022-09-22T14:08:25.505Z,2.68
2022-09-22T14:13:36.813Z,3.42
2022-09-22T14:18:33.822Z,2.74
2022-09-22T14:23:44.974Z,2.97
2022-09-22T14:28:42.056Z,3.00
2022-09-22T14:33:53.354Z,3.72
2022-09-22T14:39:05.232Z,3.45
2022-09-22T14:43:52.898Z,3.28
2022-09-22T14:48:59.977Z,3.69
2022-09-22T14:54:12.823Z,3.80
2022-09-22T14:59:09.926Z,3.76
2022-09-22T15:04:20.997Z,3.71
2022-09-22T15:09:17.826Z,4.84
2022-09-22T15:14:33.481Z,15.31
2022-09-22T15:19:30.472Z,9.76
2022-09-22T15:24:38.475Z,4.14
2022-09-22T15:29:45.491Z,3.62
2022-09-22T15:34:57.170Z,3.93
2022-09-22T15:39:54.154Z,3.81
2022-09-22T15:45:01.303Z,4.15
2022-09-22T15:50:08.358Z,3.92
2022-09-22T15:55:15.209Z,3.96
2022-09-22T16:00:26.352Z,3.85
2022-09-22T16:05:22.938Z,4.15
2022-09-22T16:10:29.940Z,3.78
2022-09-22T16:15:36.871Z,3.50
2022-09-22T16:20:45.698Z,4.61
2022-09-22T16:25:52.705Z,5.00
2022-09-22T16:31:01.175Z,4.07
2022-09-22T16:36:08.063Z,3.84
2022-09-22T16:41:15.287Z,3.96
2022-09-22T16:46:22.246Z,3.73
2022-09-22T16:51:29.273Z,3.88
2022-09-22T16:56:36.226Z,4.32
2022-09-22T17:01:43.282Z,3.67
2022-09-22T17:06:50.244Z,3.67
2022-09-22T17:11:57.231Z,3.96
2022-09-22T17:17:04.276Z,3.92
2022-09-22T17:22:11.367Z,5.76
2022-09-22T17:27:18.324Z,5.21
2022-09-22T17:32:25.398Z,7.10
2022-09-22T17:37:32.353Z,4.37
2022-09-22T17:42:39.430Z,5.50
2022-09-22T17:47:46.379Z,3.55
2022-09-22T17:52:53.497Z,3.52
2022-09-22T17:58:00.643Z,3.71
2022-09-22T18:03:07.641Z,3.58
2022-09-22T18:08:14.687Z,3.75
2022-09-22T18:13:21.644Z,3.56
2022-09-22T18:18:28.611Z,4.59
2022-09-22T18:23:35.550Z,3.55
2022-09-22T18:28:42.584Z,3.50
2022-09-22T18:33:49.493Z,3.70
2022-09-22T18:38:56.681Z,3.93
2022-09-22T18:44:03.641Z,3.91
2022-09-22T18:49:10.724Z,4.51
2022-09-22T18:54:17.646Z,4.10
2022-09-22T18:59:24.665Z,4.17
2022-09-22T19:04:31.573Z,5.04
2022-09-22T19:09:39.094Z,3.84
2022-09-22T19:14:45.996Z,3.83
2022-09-22T19:19:53.196Z,3.83
2022-09-22T19:25:00.126Z,3.70
2022-09-22T19:30:07.226Z,3.95
2022-09-22T19:35:14.183Z,3.70
2022-09-22T19:40:21.492Z,3.44
2022-09-22T19:45:28.355Z,3.87
2022-09-22T19:50:35.372Z,3.84
2022-09-22T19:55:42.274Z,3.84
2022-09-22T20:00:49.337Z,3.55
2022-09-22T20:05:56.288Z,3.80
2022-09-22T20:11:25.142Z,4.11
2022-09-22T20:16:09.848Z,3.99
2022-09-22T20:21:17.051Z,3.62
2022-09-22T20:26:23.981Z,3.89
2022-09-22T20:31:31.070Z,3.89
2022-09-22T20:36:37.992Z,4.06
2022-09-22T20:41:45.187Z,3.28
2022-09-22T20:46:52.096Z,3.66
2022-09-22T20:51:59.212Z,3.75
2022-09-22T20:57:06.136Z,3.44
2022-09-22T21:02:13.229Z,2.99
2022-09-22T21:07:20.108Z,3.58
2022-09-22T21:12:31.150Z,3.39
2022-09-22T21:17:33.632Z,3.12
2022-09-22T21:22:40.646Z,3.14
2022-09-22T21:27:47.565Z,3.13
2022-09-22T21:32:54.670Z,3.04
2022-09-22T21:38:01.635Z,2.82
2022-09-22T21:43:08.750Z,3.12
2022-09-22T21:48:15.702Z,3.25
2022-09-22T21:53:22.694Z,2.94
2022-09-22T21:58:29.652Z,2.74
2022-09-22T22:03:36.737Z,2.80
2022-09-22T22:08:43.613Z,3.25
2022-09-22T22:13:50.674Z,3.38
2022-09-22T22:18:57.616Z,3.08
2022-09-22T22:24:04.725Z,3.03
2022-09-22T22:29:11.649Z,3.15
2022-09-22T22:34:18.748Z,3.04
2022-09-22T22:39:25.678Z,2.97
2022-09-22T22:44:32.754Z,3.00
2022-09-22T22:49:39.690Z,3.20
2022-09-22T22:54:46.776Z,2.85
2022-09-22T22:59:53.686Z,2.80
2022-09-22T23:05:00.930Z,2.75
2022-09-22T23:10:07.930Z,2.53
2022-09-22T23:15:15.221Z,2.60
2022-09-22T23:20:22.117Z,2.42
2022-09-22T23:25:29.146Z,2.63
2022-09-22T23:30:36.173Z,2.89
2022-09-22T23:35:43.220Z,2.76
2022-09-22T23:40:50.221Z,2.78
2022-09-22T23:45:57.146Z,3.27
2022-09-22T23:51:04.047Z,2.37
2022-09-22T23:56:11.179Z,2.72
